Time;durP1;ratioP1;P1;durP2;ratioP2;P2;SDS_P1;SDS_P2;PMS_P1;PMS_P2;Temp;Humidity;BMP_temperature;BMP_pressure;BME280_temperature;BME280_humidity;BME280_pressure;Samples;Min_cycle;Max_cycle;Signal;HPM_P1;HPM_P2
2023/07/28 00:01:35;;;;;;;5.10;3.83;;;17.70;99.90;;;;;;5033511;28;20467;-62
2023/07/28 00:04:04;;;;;;;3.57;3.27;;;17.70;99.90;;;;;;5033943;28;20451;-60
2023/07/28 00:06:31;;;;;;;3.23;2.93;;;17.70;99.90;;;;;;5033734;28;20447;-60
2023/07/28 00:08:57;;;;;;;4.03;3.63;;;17.70;99.90;;;;;;5033937;28;20516;-60
2023/07/28 00:11:24;;;;;;;3.90;3.60;;;17.70;99.90;;;;;;5033420;28;20460;-60
2023/07/28 00:13:51;;;;;;;3.30;3.03;;;17.70;99.90;;;;;;5033863;28;20490;-61
2023/07/28 00:16:18;;;;;;;3.10;2.67;;;17.70;99.90;;;;;;5033820;28;20495;-61
2023/07/28 00:18:46;;;;;;;2.90;2.70;;;17.70;99.90;;;;;;5034166;28;20452;-61
2023/07/28 00:21:13;;;;;;;3.33;2.67;;;17.80;99.90;;;;;;5034324;28;20496;-61
2023/07/28 00:23:39;;;;;;;2.97;2.63;;;17.70;99.90;;;;;;5034123;28;20454;-61
2023/07/28 00:26:07;;;;;;;2.23;2.03;;;17.70;99.90;;;;;;5033881;28;20963;-60
2023/07/28 00:28:34;;;;;;;3.93;2.63;;;17.70;99.90;;;;;;5037302;28;20448;-59
2023/07/28 00:31:01;;;;;;;2.23;2.03;;;17.70;99.90;;;;;;5038010;28;20557;-60
2023/07/28 00:33:27;;;;;;;3.77;2.60;;;17.70;99.90;;;;;;5037940;28;20450;-60
2023/07/28 00:35:55;;;;;;;4.10;2.10;;;17.70;99.90;;;;;;5037836;28;20462;-60
2023/07/28 00:38:22;;;;;;;2.40;1.83;;;17.80;99.90;;;;;;5037827;28;20573;-61
2023/07/28 00:40:49;;;;;;;2.20;2.00;;;17.80;99.90;;;;;;5037344;28;20487;-61
2023/07/28 00:43:16;;;;;;;2.80;2.60;;;17.80;99.90;;;;;;5037551;28;20443;-60
2023/07/28 00:45:44;;;;;;;3.00;2.30;;;17.80;99.90;;;;;;5037357;28;20453;-60
2023/07/28 00:48:13;;;;;;;2.90;2.50;;;17.80;99.90;;;;;;5037365;28;20433;-60
2023/07/28 00:50:41;;;;;;;2.00;1.90;;;17.80;99.90;;;;;;5038079;28;20474;-61
2023/07/28 00:53:10;;;;;;;2.03;1.83;;;17.70;99.90;;;;;;5037308;28;20535;-60
2023/07/28 00:55:37;;;;;;;2.60;2.40;;;17.70;99.90;;;;;;5037194;28;20505;-59
2023/07/28 00:58:04;;;;;;;3.00;2.30;;;17.70;99.90;;;;;;5036926;28;20849;-61
2023/07/28 01:00:31;;;;;;;2.60;2.40;;;17.70;99.90;;;;;;5037167;28;20474;-61
2023/07/28 01:02:58;;;;;;;2.10;2.00;;;17.60;99.90;;;;;;5037062;28;20530;-61
2023/07/28 01:05:32;;;;;;;3.03;2.60;;;17.60;99.90;;;;;;5036531;28;20443;-61
2023/07/28 01:08:03;;;;;;;3.30;2.37;;;17.70;99.90;;;;;;5036669;28;20434;-61
2023/07/28 01:10:33;;;;;;;3.40;2.33;;;17.60;99.90;;;;;;5036546;28;20483;-60
2023/07/28 01:13:00;;;;;;;2.93;2.63;;;17.70;99.90;;;;;;5036729;28;20444;-59
2023/07/28 01:15:27;;;;;;;2.80;2.40;;;17.60;99.90;;;;;;5036901;28;20461;-60
2023/07/28 01:17:54;;;;;;;3.17;2.10;;;17.60;99.90;;;;;;5036406;28;20519;-60
2023/07/28 01:20:27;;;;;;;2.83;2.20;;;17.60;99.90;;;;;;5036484;28;20470;-59
2023/07/28 01:23:08;;;;;;;2.57;2.37;;;17.60;99.90;;;;;;5036309;28;20530;-58
2023/07/28 01:25:48;;;;;;;2.33;2.07;;;17.60;99.90;;;;;;5036048;28;20449;-60
2023/07/28 01:28:17;;;;;;;2.20;2.00;;;17.60;99.90;;;;;;5036133;28;20869;-61
2023/07/28 01:30:45;;;;;;;2.73;2.53;;;17.60;99.90;;;;;;5036860;28;20472;-60
2023/07/28 01:33:11;;;;;;;2.60;2.40;;;17.60;99.90;;;;;;5036500;28;20815;-60
2023/07/28 01:35:38;;;;;;;2.70;2.50;;;17.60;99.90;;;;;;5036484;28;20442;-61
2023/07/28 01:38:05;;;;;;;3.30;2.27;;;17.60;99.90;;;;;;5036263;28;20473;-60
2023/07/28 01:40:32;;;;;;;2.80;2.60;;;17.60;99.90;;;;;;5035163;28;20499;-60
2023/07/28 01:42:59;;;;;;;3.70;2.50;;;17.60;99.90;;;;;;5035962;28;20810;-60
2023/07/28 01:45:27;;;;;;;2.07;1.90;;;17.50;99.90;;;;;;5035885;28;20824;-60
2023/07/28 01:47:54;;;;;;;2.40;2.20;;;17.50;99.90;;;;;;5035895;28;20443;-60
2023/07/28 01:50:21;;;;;;;4.03;1.80;;;17.50;99.90;;;;;;5035187;28;21007;-60
2023/07/28 01:52:48;;;;;;;4.30;2.13;;;17.40;99.90;;;;;;5035371;28;20442;-61
2023/07/28 01:55:15;;;;;;;3.37;2.30;;;17.40;99.90;;;;;;5035758;28;20462;-60
2023/07/28 01:57:50;;;;;;;2.47;2.27;;;17.40;99.90;;;;;;5035609;28;20484;-61
2023/07/28 02:00:18;;;;;;;3.33;2.30;;;17.40;99.90;;;;;;5035134;28;20464;-60
2023/07/28 02:02:46;;;;;;;3.17;2.20;;;17.40;99.90;;;;;;5035540;28;20445;-60
2023/07/28 02:05:13;;;;;;;2.77;2.53;;;17.40;99.90;;;;;;5035262;28;20546;-60
2023/07/28 02:07:39;;;;;;;3.33;2.20;;;17.40;99.90;;;;;;5035444;28;20542;-60
2023/07/28 02:10:07;;;;;;;4.20;2.60;;;17.40;99.90;;;;;;5035692;28;20489;-60
2023/07/28 02:12:34;;;;;;;3.37;2.30;;;17.40;99.90;;;;;;5035266;28;20932;-60
2023/07/28 02:15:01;;;;;;;2.57;2.00;;;17.40;99.90;;;;;;5035312;28;20459;-60
2023/07/28 02:17:28;;;;;;;6.50;2.27;;;17.40;99.90;;;;;;5035567;28;20482;-61
2023/07/28 02:19:56;;;;;;;2.40;2.20;;;17.50;99.90;;;;;;5034829;28;20478;-58
2023/07/28 02:22:23;;;;;;;2.00;1.80;;;17.50;99.90;;;;;;5035459;28;20445;-60
2023/07/28 02:24:49;;;;;;;2.10;1.90;;;17.60;99.90;;;;;;5034844;28;20447;-61
2023/07/28 02:27:16;;;;;;;2.67;1.80;;;17.50;99.90;;;;;;5035613;28;20442;-61
2023/07/28 02:29:43;;;;;;;2.43;2.23;;;17.50;99.90;;;;;;5035331;28;20477;-60
2023/07/28 02:32:10;;;;;;;5.63;2.10;;;17.60;99.90;;;;;;5035005;28;20443;-60
2023/07/28 02:34:37;;;;;;;3.40;2.10;;;17.60;99.90;;;;;;5035245;28;20540;-60
2023/07/28 02:37:05;;;;;;;2.57;2.13;;;17.60;99.90;;;;;;5035144;28;20483;-61
2023/07/28 02:39:32;;;;;;;3.20;2.47;;;17.60;99.90;;;;;;5034480;28;20483;-60
2023/07/28 02:41:59;;;;;;;2.20;2.10;;;17.60;99.90;;;;;;5034980;28;20435;-60
2023/07/28 02:44:25;;;;;;;2.23;2.03;;;17.60;99.90;;;;;;5034676;28;20509;-61
2023/07/28 02:46:52;;;;;;;2.03;1.83;;;17.70;99.90;;;;;;5035076;28;20447;-60
2023/07/28 02:49:19;;;;;;;4.40;2.30;;;17.60;99.90;;;;;;5034424;28;20448;-60
2023/07/28 02:51:46;;;;;;;3.20;2.40;;;17.70;99.90;;;;;;5033164;28;20970;-60
2023/07/28 02:54:14;;;;;;;2.67;2.40;;;17.70;99.90;;;;;;5034543;28;20445;-60
2023/07/28 02:56:41;;;;;;;4.17;2.60;;;17.70;99.90;;;;;;5034516;28;20517;-59
2023/07/28 02:59:07;;;;;;;3.70;2.00;;;17.70;99.90;;;;;;5034077;28;20509;-60
2023/07/28 03:01:35;;;;;;;3.13;2.37;;;17.70;99.90;;;;;;5034006;28;20467;-59
2023/07/28 03:04:02;;;;;;;3.00;2.10;;;17.70;99.90;;;;;;5034258;28;20453;-60
2023/07/28 03:06:28;;;;;;;4.80;1.90;;;17.70;99.90;;;;;;5034188;28;20498;-60
2023/07/28 03:08:56;;;;;;;1.97;1.87;;;17.70;99.90;;;;;;5034211;28;20439;-59
2023/07/28 03:11:24;;;;;;;1.80;1.70;;;17.70;99.90;;;;;;5034034;28;20467;-60
2023/07/28 03:13:50;;;;;;;2.17;1.97;;;17.70;99.90;;;;;;5033728;28;20994;-59
2023/07/28 03:16:17;;;;;;;2.30;1.90;;;17.70;99.90;;;;;;5034384;28;20460;-60
2023/07/28 03:18:44;;;;;;;2.30;2.10;;;17.70;99.90;;;;;;5033993;28;20481;-60
2023/07/28 03:21:11;;;;;;;2.13;1.93;;;17.70;99.90;;;;;;5033880;28;20477;-60
2023/07/28 03:23:37;;;;;;;4.57;1.83;;;17.70;99.90;;;;;;5036128;28;20455;-60
2023/07/28 03:26:04;;;;;;;1.70;1.60;;;17.70;99.90;;;;;;5037593;28;20445;-60
2023/07/28 03:28:32;;;;;;;1.80;1.70;;;17.70;99.90;;;;;;5035066;28;20443;-60
2023/07/28 03:30:59;;;;;;;2.60;2.07;;;17.70;99.90;;;;;;5033942;28;20486;-60
2023/07/28 03:33:26;;;;;;;2.37;2.03;;;17.70;99.90;;;;;;5034010;28;20447;-60
2023/07/28 03:35:53;;;;;;;2.30;2.10;;;17.70;99.90;;;;;;5034037;28;20453;-60
2023/07/28 03:38:19;;;;;;;1.67;1.57;;;17.70;99.90;;;;;;5034152;28;20596;-60
2023/07/28 03:40:46;;;;;;;1.90;1.53;;;17.80;99.90;;;;;;5033739;28;20487;-60
2023/07/28 03:43:13;;;;;;;2.73;2.00;;;17.80;99.90;;;;;;5034004;28;20550;-61
2023/07/28 03:45:41;;;;;;;2.17;1.90;;;17.70;99.90;;;;;;5033799;28;20448;-60
2023/07/28 03:48:08;;;;;;;2.27;1.70;;;17.80;99.90;;;;;;5033565;28;20955;-61
2023/07/28 03:50:35;;;;;;;1.80;1.70;;;17.80;99.90;;;;;;5033549;28;20466;-61
2023/07/28 03:53:02;;;;;;;2.63;1.50;;;17.80;99.90;;;;;;5033636;28;20973;-60
2023/07/28 03:55:28;;;;;;;2.13;1.60;;;17.80;99.90;;;;;;5033766;28;20450;-61
2023/07/28 03:57:55;;;;;;;2.20;1.53;;;17.70;99.90;;;;;;5033583;28;20492;-62
2023/07/28 04:00:23;;;;;;;2.37;1.77;;;17.70;99.90;;;;;;5033812;28;20471;-59
2023/07/28 04:02:51;;;;;;;1.70;1.53;;;17.60;99.90;;;;;;5033419;28;20544;-60
2023/07/28 04:05:18;;;;;;;4.60;2.27;;;17.60;99.90;;;;;;5033384;28;20494;-61
2023/07/28 04:07:44;;;;;;;5.20;1.77;;;17.60;99.90;;;;;;5033743;28;20448;-61
2023/07/28 04:12:00;;;;;;;1.73;1.57;;;17.60;99.90;;;;;;5091745;28;20619;-61
2023/07/28 04:14:27;;;;;;;1.83;1.60;;;17.60;99.90;;;;;;5091030;28;20438;-61
2023/07/28 04:16:54;;;;;;;7.67;1.73;;;17.60;99.90;;;;;;5090516;28;20456;-60
2023/07/28 04:19:21;;;;;;;1.70;1.53;;;17.60;99.90;;;;;;5091113;28;20446;-62
2023/07/28 04:21:47;;;;;;;1.80;1.70;;;17.60;99.90;;;;;;5091407;28;20445;-61
2023/07/28 04:24:14;;;;;;;1.80;1.50;;;17.70;99.90;;;;;;5090820;28;20446;-60
2023/07/28 04:26:42;;;;;;;1.60;1.50;;;17.70;99.90;;;;;;5090280;28;20453;-60
2023/07/28 04:29:10;;;;;;;1.63;1.53;;;17.70;99.90;;;;;;5090241;28;20453;-60
2023/07/28 04:31:37;;;;;;;2.13;1.40;;;17.70;99.90;;;;;;5090540;28;20850;-60
2023/07/28 04:34:04;;;;;;;1.70;1.60;;;17.80;99.90;;;;;;5090347;28;20932;-60
2023/07/28 04:36:31;;;;;;;2.67;2.07;;;17.80;99.90;;;;;;5091195;28;20446;-60
2023/07/28 04:38:57;;;;;;;5.30;1.70;;;17.80;99.90;;;;;;5090742;28;20447;-61
2023/07/28 04:41:24;;;;;;;1.73;1.63;;;17.90;99.90;;;;;;5090704;28;20467;-60
2023/07/28 04:43:51;;;;;;;1.63;1.53;;;17.90;99.90;;;;;;5090100;28;20940;-60
2023/07/28 04:46:19;;;;;;;1.97;1.80;;;17.90;99.90;;;;;;5090839;28;20625;-60
2023/07/28 04:48:47;;;;;;;1.87;1.77;;;18.00;99.90;;;;;;5091264;28;20446;-61
2023/07/28 04:51:13;;;;;;;2.10;2.00;;;18.00;99.90;;;;;;5090477;28;20500;-61
2023/07/28 04:53:40;;;;;;;2.10;1.90;;;18.00;99.90;;;;;;5091176;28;20496;-60
2023/07/28 04:56:07;;;;;;;2.63;2.43;;;18.00;99.90;;;;;;5090639;28;20465;-60
2023/07/28 04:58:34;;;;;;;2.53;2.33;;;18.10;99.90;;;;;;5090074;28;20540;-60
2023/07/28 05:01:02;;;;;;;2.60;2.40;;;18.10;99.90;;;;;;5090260;28;20459;-62
2023/07/28 05:03:30;;;;;;;2.10;2.00;;;18.10;99.90;;;;;;5090303;28;20482;-60
2023/07/28 05:05:57;;;;;;;2.80;2.60;;;18.10;99.90;;;;;;5090319;28;20470;-61
2023/07/28 05:08:24;;;;;;;3.10;2.10;;;18.10;99.90;;;;;;5090795;28;20458;-61
2023/07/28 05:10:51;;;;;;;1.93;1.83;;;18.10;99.90;;;;;;5090083;28;20589;-60
2023/07/28 05:13:17;;;;;;;2.03;1.83;;;18.10;99.90;;;;;;5090494;28;20940;-61
2023/07/28 05:15:44;;;;;;;6.20;1.73;;;18.10;99.90;;;;;;5090780;28;20443;-60
2023/07/28 05:18:11;;;;;;;2.00;1.80;;;18.10;99.90;;;;;;5089672;28;20934;-60
2023/07/28 05:20:39;;;;;;;2.10;1.90;;;18.20;99.90;;;;;;5089374;28;20462;-60
2023/07/28 05:23:06;;;;;;;2.10;1.90;;;18.20;99.90;;;;;;5077859;28;20820;-61
2023/07/28 05:25:32;;;;;;;2.90;2.07;;;18.20;99.90;;;;;;5076168;28;20446;-59
2023/07/28 05:27:59;;;;;;;2.33;2.13;;;18.20;99.90;;;;;;5076093;28;20443;-60
2023/07/28 05:30:26;;;;;;;1.63;1.53;;;18.20;99.90;;;;;;5076407;28;20487;-61
2023/07/28 05:32:54;;;;;;;1.93;1.83;;;18.20;99.90;;;;;;5076459;28;20443;-61
2023/07/28 05:35:21;;;;;;;2.40;2.20;;;18.20;99.90;;;;;;5076080;28;20447;-61
2023/07/28 05:37:49;;;;;;;2.27;2.10;;;18.20;99.90;;;;;;5076294;28;20447;-60
2023/07/28 05:40:16;;;;;;;2.53;2.33;;;18.20;99.90;;;;;;5076055;28;20463;-61
2023/07/28 05:42:43;;;;;;;2.30;2.00;;;18.20;99.90;;;;;;5077101;22;20595;-64
2023/07/28 05:45:11;;;;;;;2.43;2.23;;;18.30;99.90;;;;;;5035581;28;20784;-66
2023/07/28 05:47:37;;;;;;;3.73;2.37;;;18.30;99.90;;;;;;5035345;28;20449;-65
2023/07/28 05:50:06;;;;;;;2.93;2.63;;;18.30;99.90;;;;;;5036728;28;20510;-65
2023/07/28 05:52:33;;;;;;;2.30;2.10;;;18.30;99.90;;;;;;5035408;28;20515;-65
2023/07/28 05:55:01;;;;;;;2.83;2.53;;;18.30;99.90;;;;;;5036057;28;20456;-64
2023/07/28 05:57:28;;;;;;;3.20;2.40;;;18.30;99.90;;;;;;5034972;28;20445;-65
2023/07/28 05:59:54;;;;;;;4.43;3.10;;;18.30;99.90;;;;;;5034961;28;20451;-65
2023/07/28 06:02:21;;;;;;;4.03;3.73;;;18.40;99.90;;;;;;5035105;28;20465;-64
2023/07/28 06:04:48;;;;;;;2.90;2.70;;;18.40;99.90;;;;;;5035275;28;20445;-64
2023/07/28 06:07:15;;;;;;;3.90;3.27;;;18.50;99.90;;;;;;5034793;28;20475;-64
2023/07/28 06:09:42;;;;;;;3.30;3.10;;;18.50;99.90;;;;;;5035306;28;20449;-64
2023/07/28 06:12:11;;;;;;;2.83;2.63;;;18.60;99.90;;;;;;5035214;28;20496;-64
2023/07/28 06:14:37;;;;;;;3.60;3.23;;;18.70;99.90;;;;;;5036113;28;20441;-64
2023/07/28 06:17:05;;;;;;;2.73;2.53;;;18.70;99.90;;;;;;5034796;28;20452;-64
2023/07/28 06:19:31;;;;;;;3.43;2.87;;;18.80;99.90;;;;;;5034931;28;20450;-64
2023/07/28 06:21:58;;;;;;;2.73;2.53;;;18.90;99.90;;;;;;5035043;28;20464;-65
2023/07/28 06:24:25;;;;;;;3.33;3.13;;;18.90;99.90;;;;;;5034661;28;20441;-65
2023/07/28 06:26:52;;;;;;;4.40;2.70;;;18.80;99.90;;;;;;5035050;28;20449;-65
2023/07/28 06:29:20;;;;;;;3.43;3.13;;;18.70;99.90;;;;;;5034577;28;20786;-65
2023/07/28 06:31:46;;;;;;;2.87;2.57;;;18.60;99.90;;;;;;5035117;28;20488;-65
2023/07/28 06:34:13;;;;;;;3.30;2.90;;;18.60;99.90;;;;;;5034091;28;20454;-65
2023/07/28 06:36:40;;;;;;;4.40;3.20;;;18.50;99.90;;;;;;5035869;28;20452;-65
2023/07/28 06:39:07;;;;;;;6.73;3.57;;;18.50;99.90;;;;;;5036168;28;20447;-65
2023/07/28 06:41:34;;;;;;;3.17;2.97;;;18.60;99.90;;;;;;5034938;28;20532;-65
2023/07/28 06:44:02;;;;;;;4.50;3.30;;;18.60;99.90;;;;;;5034682;28;20481;-65
2023/07/28 06:46:30;;;;;;;4.80;2.97;;;18.60;99.90;;;;;;5034613;28;20445;-64
2023/07/28 06:48:57;;;;;;;2.80;2.40;;;18.70;99.90;;;;;;5035524;28;20515;-65
2023/07/28 06:51:24;;;;;;;4.27;2.63;;;18.80;99.90;;;;;;5035363;28;20506;-65
2023/07/28 06:53:51;;;;;;;2.47;2.27;;;18.80;99.90;;;;;;5035225;28;20529;-65
2023/07/28 06:56:18;;;;;;;4.27;2.50;;;18.90;99.90;;;;;;5034732;28;20931;-66
2023/07/28 06:58:45;;;;;;;4.03;2.33;;;18.90;99.90;;;;;;5035064;28;20451;-64
2023/07/28 07:01:12;;;;;;;2.60;2.40;;;18.90;99.90;;;;;;5034406;28;20445;-64
2023/07/28 07:03:40;;;;;;;2.50;2.30;;;18.90;99.90;;;;;;5034973;28;20548;-64
2023/07/28 07:06:07;;;;;;;2.27;2.10;;;18.90;99.90;;;;;;5034664;28;20519;-64
2023/07/28 07:08:34;;;;;;;2.67;2.47;;;18.90;99.90;;;;;;5034762;28;20506;-65
2023/07/28 07:11:01;;;;;;;2.67;2.47;;;18.90;99.90;;;;;;5035457;28;20569;-63
2023/07/28 07:13:28;;;;;;;2.80;2.40;;;19.00;99.90;;;;;;5035702;28;20555;-64
2023/07/28 07:15:55;;;;;;;3.00;2.80;;;19.00;99.90;;;;;;5036806;28;20453;-65
2023/07/28 07:18:21;;;;;;;2.87;2.67;;;19.10;99.90;;;;;;5034657;28;20445;-65
2023/07/28 07:20:50;;;;;;;3.10;2.80;;;19.20;99.90;;;;;;5033677;28;20457;-64
2023/07/28 07:23:16;;;;;;;2.30;2.13;;;19.30;99.90;;;;;;5034378;28;20814;-64
2023/07/28 07:25:43;;;;;;;2.90;2.70;;;19.30;99.90;;;;;;5034962;28;20971;-65
2023/07/28 07:28:10;;;;;;;3.03;2.60;;;19.40;99.90;;;;;;5033856;28;20939;-65
2023/07/28 07:30:37;;;;;;;3.73;2.80;;;19.50;99.90;;;;;;5033829;28;20529;-64
2023/07/28 07:33:04;;;;;;;2.43;2.23;;;19.60;99.90;;;;;;5033164;28;20910;-64
2023/07/28 07:35:31;;;;;;;2.53;2.30;;;19.80;99.90;;;;;;5033147;28;20817;-64
2023/07/28 07:37:59;;;;;;;2.90;2.70;;;19.90;99.90;;;;;;5033814;28;20532;-64
2023/07/28 07:40:25;;;;;;;3.07;2.77;;;19.90;99.90;;;;;;5034162;28;20455;-64
2023/07/28 07:42:52;;;;;;;4.63;3.17;;;19.90;99.90;;;;;;5033574;28;20929;-64
2023/07/28 07:45:19;;;;;;;2.70;2.50;;;20.00;99.90;;;;;;5033466;28;20448;-65
2023/07/28 07:47:46;;;;;;;2.43;2.23;;;20.30;99.90;;;;;;5033497;28;20480;-64
2023/07/28 07:50:13;;;;;;;2.77;2.53;;;20.50;99.90;;;;;;5033828;28;20485;-65
2023/07/28 07:52:40;;;;;;;2.83;2.60;;;20.60;99.90;;;;;;5032972;28;21010;-65
2023/07/28 07:55:11;;;;;;;3.30;2.60;;;20.60;99.90;;;;;;5033119;28;20810;-65
2023/07/28 07:57:37;;;;;;;3.20;2.20;;;20.60;99.90;;;;;;5033498;28;20433;-64
2023/07/28 08:00:05;;;;;;;2.70;2.43;;;20.60;99.90;;;;;;5033800;28;20979;-64
2023/07/28 08:02:32;;;;;;;2.60;2.20;;;20.50;99.90;;;;;;5033026;28;20467;-65
2023/07/28 08:04:59;;;;;;;2.80;2.60;;;20.50;99.90;;;;;;5033453;28;20959;-64
2023/07/28 08:07:26;;;;;;;2.73;2.50;;;20.50;99.90;;;;;;5034205;28;20446;-64
2023/07/28 08:09:53;;;;;;;2.40;2.20;;;20.50;99.90;;;;;;5033931;28;20484;-64
2023/07/28 08:12:21;;;;;;;2.70;2.50;;;20.50;99.90;;;;;;5033696;28;20539;-65
2023/07/28 08:14:48;;;;;;;3.10;2.53;;;20.50;99.90;;;;;;5033390;28;20504;-64
2023/07/28 08:17:15;;;;;;;2.70;2.50;;;20.60;99.90;;;;;;5034504;28;20537;-64
2023/07/28 08:19:42;;;;;;;5.53;2.40;;;20.80;99.90;;;;;;5034414;28;20937;-64
2023/07/28 08:22:09;;;;;;;2.70;2.50;;;21.00;99.90;;;;;;5033418;28;20990;-64
2023/07/28 08:24:35;;;;;;;3.37;2.20;;;21.20;99.90;;;;;;5034982;28;20485;-65
2023/07/28 08:27:02;;;;;;;2.73;2.50;;;21.30;99.90;;;;;;5035337;28;20449;-64
2023/07/28 08:29:30;;;;;;;2.83;2.23;;;21.50;99.90;;;;;;5033818;28;20457;-64
2023/07/28 08:31:57;;;;;;;2.60;2.40;;;21.70;99.90;;;;;;5033901;28;20572;-64
2023/07/28 08:34:24;;;;;;;3.70;2.53;;;22.00;99.90;;;;;;5033618;28;20452;-64
2023/07/28 08:36:51;;;;;;;2.30;2.10;;;22.10;99.90;;;;;;5033417;28;20481;-64
2023/07/28 08:39:19;;;;;;;4.50;2.37;;;22.20;99.90;;;;;;5033847;28;20547;-64
2023/07/28 08:41:46;;;;;;;3.03;2.13;;;22.40;99.90;;;;;;5033006;28;20475;-64
2023/07/28 08:44:13;;;;;;;3.70;2.23;;;22.60;99.90;;;;;;5033855;28;20982;-64
2023/07/28 08:46:41;;;;;;;2.20;1.93;;;22.90;99.90;;;;;;5033295;28;20535;-64
2023/07/28 08:49:08;;;;;;;2.47;2.27;;;23.00;99.90;;;;;;5033632;28;20453;-64
2023/07/28 08:51:35;;;;;;;2.30;1.90;;;23.00;99.90;;;;;;5033603;28;20490;-64
2023/07/28 08:54:02;;;;;;;2.43;1.73;;;22.90;99.90;;;;;;5033810;28;20449;-66
2023/07/28 08:56:29;;;;;;;2.23;1.73;;;22.90;99.90;;;;;;5034492;28;20515;-64
2023/07/28 08:59:00;;;;;;;1.77;1.67;;;23.00;99.90;;;;;;5037802;28;20490;-64
2023/07/28 09:01:26;;;;;;;2.17;2.07;;;23.10;99.90;;;;;;5038233;28;20502;-63
2023/07/28 09:03:55;;;;;;;2.77;1.97;;;23.10;99.90;;;;;;5037933;28;20451;-64
2023/07/28 09:06:30;;;;;;;2.90;1.97;;;23.10;99.90;;;;;;5037697;28;20532;-63
2023/07/28 09:08:57;;;;;;;2.10;1.90;;;23.20;99.90;;;;;;5038078;28;20469;-64
2023/07/28 09:11:26;;;;;;;2.43;1.60;;;23.20;99.90;;;;;;5037632;28;20458;-64
2023/07/28 09:13:55;;;;;;;2.20;1.97;;;23.10;99.90;;;;;;5037382;28;20459;-64
2023/07/28 09:16:24;;;;;;;2.20;2.00;;;23.00;99.90;;;;;;5037754;28;20458;-62
2023/07/28 09:18:51;;;;;;;1.90;1.80;;;22.90;99.90;;;;;;5036102;28;20772;-64
2023/07/28 09:21:20;;;;;;;2.73;1.80;;;23.00;99.90;;;;;;5036009;28;20454;-64
2023/07/28 09:23:48;;;;;;;2.07;1.93;;;23.10;99.90;;;;;;5036646;28;20486;-64
2023/07/28 09:26:15;;;;;;;2.40;2.20;;;23.30;99.90;;;;;;5036125;28;20648;-63
2023/07/28 09:28:42;;;;;;;3.90;2.10;;;23.40;99.50;;;;;;5036185;28;20453;-64
2023/07/28 09:31:10;;;;;;;1.80;1.70;;;23.40;98.80;;;;;;5036259;28;20468;-63
2023/07/28 09:33:38;;;;;;;2.80;2.00;;;23.40;98.70;;;;;;5035796;28;20460;-61
2023/07/28 09:36:10;;;;;;;2.20;2.00;;;23.40;98.50;;;;;;5036381;28;20527;-61
2023/07/28 09:38:41;;;;;;;2.00;1.90;;;23.50;98.70;;;;;;5036485;28;20536;-62
2023/07/28 09:41:11;;;;;;;2.43;2.23;;;23.80;98.10;;;;;;5036273;28;20442;-60
2023/07/28 09:43:38;;;;;;;2.50;2.30;;;24.10;97.70;;;;;;5037276;28;20484;-62
2023/07/28 09:46:07;;;;;;;2.00;1.80;;;24.30;96.20;;;;;;5039144;28;20534;-63
2023/07/28 09:48:34;;;;;;;1.97;1.87;;;24.50;95.10;;;;;;5038760;28;20441;-60
2023/07/28 09:51:09;;;;;;;2.50;2.10;;;24.50;94.40;;;;;;5036881;28;20535;-62
2023/07/28 09:53:45;;;;;;;2.00;1.80;;;24.70;93.80;;;;;;5037210;28;20515;-62
2023/07/28 09:56:14;;;;;;;2.10;1.97;;;24.70;92.60;;;;;;5037066;28;20436;-63
2023/07/28 09:58:44;;;;;;;2.50;2.30;;;24.60;91.60;;;;;;5038047;28;20538;-63
2023/07/28 10:01:12;;;;;;;3.30;2.00;;;24.70;91.20;;;;;;5037573;28;20478;-63
2023/07/28 10:03:39;;;;;;;1.77;1.67;;;24.80;90.30;;;;;;5037616;28;20973;-63
2023/07/28 10:06:06;;;;;;;2.80;2.50;;;24.90;90.30;;;;;;5037155;28;20484;-62
2023/07/28 10:08:34;;;;;;;1.80;1.70;;;25.00;90.00;;;;;;5037179;28;20428;-62
2023/07/28 10:11:04;;;;;;;2.47;2.20;;;25.00;89.00;;;;;;5037502;28;20463;-61
2023/07/28 10:13:41;;;;;;;2.30;2.10;;;24.80;89.00;;;;;;5036881;28;20862;-61
2023/07/28 10:16:09;;;;;;;2.03;1.83;;;24.90;89.10;;;;;;5037735;28;20433;-60
2023/07/28 10:18:36;;;;;;;2.30;2.10;;;24.90;87.90;;;;;;5038463;28;20551;-62
2023/07/28 10:21:06;;;;;;;3.70;2.50;;;24.80;86.70;;;;;;5038526;28;20436;-64
2023/07/28 10:23:35;;;;;;;2.13;2.00;;;24.70;87.10;;;;;;5038485;28;20545;-64
2023/07/28 10:26:05;;;;;;;1.73;1.63;;;24.50;87.50;;;;;;5037766;28;20452;-63
2023/07/28 10:28:38;;;;;;;2.13;1.93;;;24.40;87.50;;;;;;5038730;28;20455;-63
2023/07/28 10:31:06;;;;;;;2.40;2.20;;;24.30;87.80;;;;;;5036273;28;20435;-64
2023/07/28 10:33:35;;;;;;;2.27;2.07;;;24.30;88.10;;;;;;5036363;28;20959;-64
2023/07/28 10:36:13;;;;;;;2.17;2.00;;;24.30;88.20;;;;;;5037450;28;20450;-63
2023/07/28 10:38:40;;;;;;;5.13;2.27;;;24.10;88.00;;;;;;5037480;28;20440;-64
2023/07/28 10:41:11;;;;;;;2.47;2.20;;;23.90;89.20;;;;;;5039302;28;20825;-65
2023/07/28 10:43:39;;;;;;;1.90;1.80;;;23.90;90.00;;;;;;5036444;28;20478;-64
2023/07/28 10:46:07;;;;;;;1.83;1.67;;;24.10;89.70;;;;;;5036750;28;20500;-64
2023/07/28 10:48:36;;;;;;;3.37;1.77;;;24.30;86.70;;;;;;5036189;28;20452;-64
2023/07/28 10:51:03;;;;;;;1.73;1.50;;;24.40;85.40;;;;;;5035690;28;20500;-64
2023/07/28 10:53:32;;;;;;;3.03;1.97;;;24.30;85.00;;;;;;5034915;28;20486;-65
2023/07/28 10:55:59;;;;;;;2.33;2.13;;;24.20;85.40;;;;;;5035416;28;20476;-65
2023/07/28 10:58:27;;;;;;;1.90;1.80;;;24.20;86.20;;;;;;5035928;28;20541;-64
2023/07/28 11:00:54;;;;;;;2.80;1.70;;;24.40;86.30;;;;;;5036436;28;20452;-64
2023/07/28 11:03:23;;;;;;;2.33;2.10;;;24.80;85.50;;;;;;5036844;28;20556;-64
2023/07/28 11:05:50;;;;;;;2.50;1.90;;;25.10;83.80;;;;;;5039795;28;20530;-64
2023/07/28 11:08:17;;;;;;;1.93;1.80;;;25.30;81.90;;;;;;5037501;28;20490;-64
2023/07/28 11:10:45;;;;;;;2.10;1.87;;;25.40;80.20;;;;;;5036796;28;20449;-64
2023/07/28 11:13:12;;;;;;;2.30;2.10;;;25.50;79.70;;;;;;5035691;28;20477;-65
2023/07/28 11:15:41;;;;;;;2.47;1.70;;;25.50;79.00;;;;;;5035522;28;20456;-64
2023/07/28 11:18:09;;;;;;;2.40;1.90;;;25.50;78.20;;;;;;5036209;28;20816;-64
2023/07/28 11:20:36;;;;;;;1.93;1.83;;;25.50;77.10;;;;;;5036606;28;20959;-64
2023/07/28 11:23:05;;;;;;;2.40;1.97;;;25.40;76.80;;;;;;5034588;28;20510;-64
2023/07/28 11:25:33;;;;;;;2.30;1.97;;;25.40;76.90;;;;;;5034491;28;20460;-64
2023/07/28 11:28:03;;;;;;;1.80;1.70;;;25.30;76.50;;;;;;5034275;28;20489;-63
2023/07/28 11:30:30;;;;;;;2.47;2.23;;;25.20;76.50;;;;;;5035298;28;20500;-62
2023/07/28 11:32:59;;;;;;;2.90;1.93;;;25.20;75.90;;;;;;5034964;28;20493;-63
2023/07/28 11:35:26;;;;;;;2.10;1.73;;;25.10;75.50;;;;;;5034804;28;20447;-63
2023/07/28 11:37:54;;;;;;;2.43;2.10;;;25.10;75.70;;;;;;5034702;28;20451;-65
2023/07/28 11:40:25;;;;;;;2.70;2.13;;;25.00;75.90;;;;;;5034112;28;20537;-64
2023/07/28 11:42:54;;;;;;;2.70;1.80;;;24.90;76.60;;;;;;5034872;28;20525;-63
2023/07/28 11:45:22;;;;;;;2.30;2.10;;;24.90;77.20;;;;;;5034948;28;20941;-65
2023/07/28 11:48:01;;;;;;;1.80;1.70;;;25.20;77.00;;;;;;5033701;28;20494;-63
2023/07/28 11:50:30;;;;;;;2.17;1.97;;;25.40;75.60;;;;;;5034238;28;20449;-65
2023/07/28 11:52:58;;;;;;;2.53;2.33;;;25.60;74.70;;;;;;5033578;28;20487;-64
2023/07/28 11:55:25;;;;;;;2.20;2.00;;;25.90;73.10;;;;;;5033815;28;20536;-65
2023/07/28 11:57:53;;;;;;;2.17;1.97;;;26.10;72.20;;;;;;5035500;28;20473;-66
2023/07/28 12:00:27;;;;;;;2.67;2.47;;;26.30;70.80;;;;;;5035269;28;20895;-64
2023/07/28 12:03:04;;;;;;;4.17;2.17;;;26.80;68.80;;;;;;5034198;28;20470;-65
2023/07/28 12:05:32;;;;;;;2.23;2.03;;;27.20;67.10;;;;;;5034587;28;20454;-66
2023/07/28 12:07:59;;;;;;;2.30;2.10;;;27.80;64.80;;;;;;5059317;22;21101;-63
2023/07/28 12:10:27;;;;;;;2.73;2.53;;;28.30;63.00;;;;;;5035247;28;20435;-64
2023/07/28 12:12:54;;;;;;;2.23;2.03;;;28.80;61.20;;;;;;5034739;28;20488;-63
2023/07/28 12:15:28;;;;;;;2.00;1.80;;;28.70;59.70;;;;;;5034187;28;20634;-63
2023/07/28 12:18:10;;;;;;;2.20;2.00;;;28.40;60.00;;;;;;5032843;28;20473;-64
2023/07/28 12:20:39;;;;;;;2.20;1.90;;;28.40;59.60;;;;;;5033175;28;20540;-63
2023/07/28 12:23:06;;;;;;;2.30;2.10;;;28.70;59.00;;;;;;5033975;28;20814;-63
2023/07/28 12:25:33;;;;;;;2.33;2.13;;;29.10;58.20;;;;;;5034335;28;20535;-62
2023/07/28 12:28:00;;;;;;;2.87;1.80;;;29.70;57.00;;;;;;5036598;28;20475;-62
2023/07/28 12:30:27;;;;;;;2.33;2.10;;;30.00;55.10;;;;;;5034480;28;20460;-60
2023/07/28 12:32:54;;;;;;;3.17;1.90;;;29.80;54.50;;;;;;5036505;28;20487;-61
2023/07/28 12:35:23;;;;;;;2.20;2.00;;;29.50;55.00;;;;;;5038413;28;20448;-61
2023/07/28 12:37:51;;;;;;;2.43;1.80;;;29.40;55.20;;;;;;5039055;28;20476;-63
2023/07/28 12:40:18;;;;;;;3.93;2.10;;;29.10;55.10;;;;;;5037536;28;20857;-61
2023/07/28 12:42:45;;;;;;;2.17;1.80;;;28.80;56.00;;;;;;5037333;28;20832;-61
2023/07/28 12:45:12;;;;;;;2.13;1.93;;;28.60;56.00;;;;;;5038290;28;20476;-62
2023/07/28 12:47:39;;;;;;;3.70;2.10;;;28.40;56.40;;;;;;5037429;28;20450;-61
2023/07/28 12:50:07;;;;;;;2.33;2.13;;;28.00;56.80;;;;;;5039281;28;20565;-63
2023/07/28 12:52:36;;;;;;;3.30;1.77;;;27.70;57.90;;;;;;5039405;28;20494;-62